sensor_id;sensor_type;location;lat;lon;timestamp;temperature;humidity
32865;DHT22;19219;44.500;11.188;2023-08-21T00:01:03;24.80;99.90
32865;DHT22;19219;44.500;11.188;2023-08-21T00:03:29;24.90;99.90
32865;DHT22;19219;44.500;11.188;2023-08-21T00:05:55;24.80;99.90
32865;DHT22;19219;44.500;11.188;2023-08-21T00:08:21;24.70;99.90
32865;DHT22;19219;44.500;11.188;2023-08-21T00:10:46;24.60;99.90
32865;DHT22;19219;44.500;11.188;2023-08-21T00:13:13;24.50;99.90
32865;DHT22;19219;44.500;11.188;2023-08-21T00:15:39;24.30;99.90
32865;DHT22;19219;44.500;11.188;2023-08-21T00:18:05;24.20;99.90
32865;DHT22;19219;44.500;11.188;2023-08-21T00:20:31;24.20;99.90
32865;DHT22;19219;44.500;11.188;2023-08-21T00:22:57;24.20;99.90
32865;DHT22;19219;44.500;11.188;2023-08-21T00:25:22;24.30;99.90
32865;DHT22;19219;44.500;11.188;2023-08-21T00:27:48;24.30;99.90
32865;DHT22;19219;44.500;11.188;2023-08-21T00:30:14;24.30;99.90
32865;DHT22;19219;44.500;11.188;2023-08-21T00:32:42;24.20;99.90
32865;DHT22;19219;44.500;11.188;2023-08-21T00:35:08;24.10;99.90
32865;DHT22;19219;44.500;11.188;2023-08-21T00:37:34;24.10;99.90
32865;DHT22;19219;44.500;11.188;2023-08-21T00:40:00;24.00;99.90
32865;DHT22;19219;44.500;11.188;2023-08-21T00:42:25;23.90;99.90
32865;DHT22;19219;44.500;11.188;2023-08-21T00:44:51;23.90;99.90
32865;DHT22;19219;44.500;11.188;2023-08-21T00:47:17;23.80;99.90
32865;DHT22;19219;44.500;11.188;2023-08-21T00:49:45;23.80;99.90
32865;DHT22;19219;44.500;11.188;2023-08-21T00:52:12;23.80;99.90
32865;DHT22;19219;44.500;11.188;2023-08-21T00:54:39;23.80;99.90
32865;DHT22;19219;44.500;11.188;2023-08-21T00:57:05;23.90;99.90
32865;DHT22;19219;44.500;11.188;2023-08-21T00:59:31;24.00;99.90
32865;DHT22;19219;44.500;11.188;2023-08-21T01:01:57;24.10;99.90
32865;DHT22;19219;44.500;11.188;2023-08-21T01:04:23;24.10;99.90
32865;DHT22;19219;44.500;11.188;2023-08-21T01:06:49;24.10;99.90
32865;DHT22;19219;44.500;11.188;2023-08-21T01:09:29;24.10;99.90
32865;DHT22;19219;44.500;11.188;2023-08-21T01:14:54;23.90;99.90
32865;DHT22;19219;44.500;11.188;2023-08-21T01:17:24;23.80;99.90
32865;DHT22;19219;44.500;11.188;2023-08-21T01:19:52;23.80;99.90
32865;DHT22;19219;44.500;11.188;2023-08-21T01:22:18;23.80;99.90
32865;DHT22;19219;44.500;11.188;2023-08-21T01:24:44;23.80;99.90
32865;DHT22;19219;44.500;11.188;2023-08-21T01:27:10;23.80;99.90
32865;DHT22;19219;44.500;11.188;2023-08-21T01:29:37;23.70;99.90
32865;DHT22;19219;44.500;11.188;2023-08-21T01:34:55;23.80;99.90
32865;DHT22;19219;44.500;11.188;2023-08-21T01:37:22;23.80;99.90
32865;DHT22;19219;44.500;11.188;2023-08-21T01:39:48;23.80;99.90
32865;DHT22;19219;44.500;11.188;2023-08-21T01:42:14;23.90;99.90
32865;DHT22;19219;44.500;11.188;2023-08-21T01:44:40;23.90;99.90
32865;DHT22;19219;44.500;11.188;2023-08-21T01:47:06;23.90;99.90
32865;DHT22;19219;44.500;11.188;2023-08-21T01:49:31;23.90;99.90
32865;DHT22;19219;44.500;11.188;2023-08-21T01:51:57;23.90;99.90
32865;DHT22;19219;44.500;11.188;2023-08-21T01:54:23;23.90;99.90
32865;DHT22;19219;44.500;11.188;2023-08-21T01:56:48;23.90;99.90
32865;DHT22;19219;44.500;11.188;2023-08-21T01:59:16;23.80;99.90
32865;DHT22;19219;44.500;11.188;2023-08-21T02:01:42;23.80;99.90
32865;DHT22;19219;44.500;11.188;2023-08-21T02:04:08;23.70;99.90
32865;DHT22;19219;44.500;11.188;2023-08-21T02:06:33;23.70;99.90
32865;DHT22;19219;44.500;11.188;2023-08-21T02:08:59;23.70;99.90
32865;DHT22;19219;44.500;11.188;2023-08-21T02:11:25;23.60;99.90
32865;DHT22;19219;44.500;11.188;2023-08-21T02:13:50;23.70;99.90
32865;DHT22;19219;44.500;11.188;2023-08-21T02:16:16;23.70;99.90
32865;DHT22;19219;44.500;11.188;2023-08-21T02:18:42;23.80;99.90
32865;DHT22;19219;44.500;11.188;2023-08-21T02:21:07;23.90;99.90
32865;DHT22;19219;44.500;11.188;2023-08-21T02:23:33;24.00;99.90
32865;DHT22;19219;44.500;11.188;2023-08-21T02:25:59;24.10;99.90
32865;DHT22;19219;44.500;11.188;2023-08-21T02:28:24;24.20;99.90
32865;DHT22;19219;44.500;11.188;2023-08-21T02:30:50;24.10;99.90
32865;DHT22;19219;44.500;11.188;2023-08-21T02:33:16;24.00;99.90
32865;DHT22;19219;44.500;11.188;2023-08-21T02:35:41;23.80;99.90
32865;DHT22;19219;44.500;11.188;2023-08-21T02:38:07;23.60;99.90
32865;DHT22;19219;44.500;11.188;2023-08-21T02:40:33;23.60;99.90
32865;DHT22;19219;44.500;11.188;2023-08-21T02:42:58;23.40;99.90
32865;DHT22;19219;44.500;11.188;2023-08-21T02:45:24;23.40;99.90
32865;DHT22;19219;44.500;11.188;2023-08-21T02:47:50;23.20;99.90
32865;DHT22;19219;44.500;11.188;2023-08-21T02:50:16;23.10;99.90
32865;DHT22;19219;44.500;11.188;2023-08-21T02:52:41;23.00;99.90
32865;DHT22;19219;44.500;11.188;2023-08-21T02:55:07;23.00;99.90
32865;DHT22;19219;44.500;11.188;2023-08-21T02:57:33;23.00;99.90
32865;DHT22;19219;44.500;11.188;2023-08-21T02:59:59;22.90;99.90
32865;DHT22;19219;44.500;11.188;2023-08-21T03:02:24;23.00;99.90
32865;DHT22;19219;44.500;11.188;2023-08-21T03:04:50;23.00;99.90
32865;DHT22;19219;44.500;11.188;2023-08-21T03:07:17;22.90;99.90
32865;DHT22;19219;44.500;11.188;2023-08-21T03:09:45;22.90;99.90
32865;DHT22;19219;44.500;11.188;2023-08-21T03:12:10;22.90;99.90
32865;DHT22;19219;44.500;11.188;2023-08-21T03:14:36;22.80;99.90
32865;DHT22;19219;44.500;11.188;2023-08-21T03:17:02;22.80;99.90
32865;DHT22;19219;44.500;11.188;2023-08-21T03:19:27;22.80;99.90
32865;DHT22;19219;44.500;11.188;2023-08-21T03:21:53;22.80;99.90
32865;DHT22;19219;44.500;11.188;2023-08-21T03:24:19;22.90;99.90
32865;DHT22;19219;44.500;11.188;2023-08-21T03:26:44;22.80;99.90
32865;DHT22;19219;44.500;11.188;2023-08-21T03:29:10;22.70;99.90
32865;DHT22;19219;44.500;11.188;2023-08-21T03:31:36;22.70;99.90
32865;DHT22;19219;44.500;11.188;2023-08-21T03:34:01;22.60;99.90
32865;DHT22;19219;44.500;11.188;2023-08-21T03:36:27;22.40;99.90
32865;DHT22;19219;44.500;11.188;2023-08-21T03:39:00;22.50;99.90
32865;DHT22;19219;44.500;11.188;2023-08-21T03:41:27;22.40;99.90
32865;DHT22;19219;44.500;11.188;2023-08-21T03:43:53;22.50;99.90
32865;DHT22;19219;44.500;11.188;2023-08-21T03:46:19;22.50;99.90
32865;DHT22;19219;44.500;11.188;2023-08-21T03:48:44;22.50;99.90
32865;DHT22;19219;44.500;11.188;2023-08-21T03:51:10;22.50;99.90
32865;DHT22;19219;44.500;11.188;2023-08-21T03:53:36;22.50;99.90
32865;DHT22;19219;44.500;11.188;2023-08-21T03:56:02;22.60;99.90
32865;DHT22;19219;44.500;11.188;2023-08-21T03:58:28;22.50;99.90
32865;DHT22;19219;44.500;11.188;2023-08-21T04:00:53;22.50;99.90
32865;DHT22;19219;44.500;11.188;2023-08-21T04:03:20;22.40;99.90
32865;DHT22;19219;44.500;11.188;2023-08-21T04:05:46;22.40;99.90
32865;DHT22;19219;44.500;11.188;2023-08-21T04:08:12;22.60;99.90
32865;DHT22;19219;44.500;11.188;2023-08-21T04:10:37;22.70;99.90
32865;DHT22;19219;44.500;11.188;2023-08-21T04:13:04;22.80;99.90
32865;DHT22;19219;44.500;11.188;2023-08-21T04:15:30;22.90;99.90
32865;DHT22;19219;44.500;11.188;2023-08-21T04:17:56;22.90;99.90
32865;DHT22;19219;44.500;11.188;2023-08-21T04:20:22;22.90;99.90
32865;DHT22;19219;44.500;11.188;2023-08-21T04:22:48;22.90;99.90
32865;DHT22;19219;44.500;11.188;2023-08-21T04:25:14;22.90;99.90
32865;DHT22;19219;44.500;11.188;2023-08-21T04:27:41;22.90;99.90
32865;DHT22;19219;44.500;11.188;2023-08-21T04:30:08;22.90;99.90
32865;DHT22;19219;44.500;11.188;2023-08-21T04:32:34;22.90;99.90
32865;DHT22;19219;44.500;11.188;2023-08-21T04:35:00;22.90;99.90
32865;DHT22;19219;44.500;11.188;2023-08-21T04:37:26;23.00;99.90
32865;DHT22;19219;44.500;11.188;2023-08-21T04:39:52;23.00;99.90
32865;DHT22;19219;44.500;11.188;2023-08-21T04:42:18;23.00;99.90
32865;DHT22;19219;44.500;11.188;2023-08-21T04:44:44;23.10;99.90
32865;DHT22;19219;44.500;11.188;2023-08-21T04:49:45;23.30;99.90
32865;DHT22;19219;44.500;11.188;2023-08-21T04:52:10;23.40;99.90
32865;DHT22;19219;44.500;11.188;2023-08-21T04:54:36;23.40;99.90
32865;DHT22;19219;44.500;11.188;2023-08-21T04:57:02;23.40;99.90
32865;DHT22;19219;44.500;11.188;2023-08-21T04:59:28;23.40;99.90
32865;DHT22;19219;44.500;11.188;2023-08-21T05:01:54;23.50;99.90
32865;DHT22;19219;44.500;11.188;2023-08-21T05:04:20;23.50;99.90
32865;DHT22;19219;44.500;11.188;2023-08-21T05:06:45;23.50;99.90
32865;DHT22;19219;44.500;11.188;2023-08-21T05:09:11;23.40;99.90
32865;DHT22;19219;44.500;11.188;2023-08-21T05:11:36;23.40;99.90
32865;DHT22;19219;44.500;11.188;2023-08-21T05:14:02;23.30;99.90
32865;DHT22;19219;44.500;11.188;2023-08-21T05:16:28;23.40;99.90
32865;DHT22;19219;44.500;11.188;2023-08-21T05:18:54;23.40;99.90
32865;DHT22;19219;44.500;11.188;2023-08-21T05:21:19;23.50;99.90
32865;DHT22;19219;44.500;11.188;2023-08-21T05:23:45;23.50;99.90
32865;DHT22;19219;44.500;11.188;2023-08-21T05:26:11;23.60;99.90
32865;DHT22;19219;44.500;11.188;2023-08-21T05:28:36;23.70;99.90
32865;DHT22;19219;44.500;11.188;2023-08-21T05:31:02;23.70;99.90
32865;DHT22;19219;44.500;11.188;2023-08-21T05:33:28;23.80;99.90
32865;DHT22;19219;44.500;11.188;2023-08-21T05:35:55;23.80;99.90
32865;DHT22;19219;44.500;11.188;2023-08-21T05:38:21;23.90;99.90
32865;DHT22;19219;44.500;11.188;2023-08-21T05:40:48;24.00;99.90
32865;DHT22;19219;44.500;11.188;2023-08-21T05:43:13;24.00;99.90
32865;DHT22;19219;44.500;11.188;2023-08-21T05:45:39;24.10;99.90
32865;DHT22;19219;44.500;11.188;2023-08-21T05:48:05;24.30;99.90
32865;DHT22;19219;44.500;11.188;2023-08-21T05:50:31;24.30;99.90
32865;DHT22;19219;44.500;11.188;2023-08-21T05:52:57;24.50;99.90
32865;DHT22;19219;44.500;11.188;2023-08-21T05:55:23;24.60;99.90
32865;DHT22;19219;44.500;11.188;2023-08-21T05:57:49;24.70;99.90
32865;DHT22;19219;44.500;11.188;2023-08-21T06:00:15;24.80;99.90
32865;DHT22;19219;44.500;11.188;2023-08-21T06:02:41;24.90;99.90
32865;DHT22;19219;44.500;11.188;2023-08-21T06:05:09;25.00;99.90
32865;DHT22;19219;44.500;11.188;2023-08-21T06:07:35;25.20;99.90
32865;DHT22;19219;44.500;11.188;2023-08-21T06:10:00;25.20;99.90
32865;DHT22;19219;44.500;11.188;2023-08-21T06:12:26;25.40;99.90
32865;DHT22;19219;44.500;11.188;2023-08-21T06:14:52;25.60;99.90
32865;DHT22;19219;44.500;11.188;2023-08-21T06:17:17;25.70;99.90
32865;DHT22;19219;44.500;11.188;2023-08-21T06:19:44;25.80;99.90
32865;DHT22;19219;44.500;11.188;2023-08-21T06:22:09;26.00;99.90
32865;DHT22;19219;44.500;11.188;2023-08-21T06:24:35;26.30;99.90
32865;DHT22;19219;44.500;11.188;2023-08-21T06:27:01;26.70;99.90
32865;DHT22;19219;44.500;11.188;2023-08-21T06:29:26;27.20;99.90
32865;DHT22;19219;44.500;11.188;2023-08-21T06:31:52;27.70;99.90
32865;DHT22;19219;44.500;11.188;2023-08-21T06:34:18;28.20;99.90
32865;DHT22;19219;44.500;11.188;2023-08-21T06:36:44;28.70;99.90
32865;DHT22;19219;44.500;11.188;2023-08-21T06:39:09;29.20;99.90
32865;DHT22;19219;44.500;11.188;2023-08-21T06:41:35;29.70;99.90
32865;DHT22;19219;44.500;11.188;2023-08-21T06:44:00;30.10;99.90
32865;DHT22;19219;44.500;11.188;2023-08-21T06:46:26;30.40;99.90
32865;DHT22;19219;44.500;11.188;2023-08-21T06:48:52;30.60;99.90
32865;DHT22;19219;44.500;11.188;2023-08-21T06:51:18;30.90;99.90
32865;DHT22;19219;44.500;11.188;2023-08-21T06:53:43;31.10;99.90
32865;DHT22;19219;44.500;11.188;2023-08-21T06:56:09;31.40;99.90
32865;DHT22;19219;44.500;11.188;2023-08-21T06:58:35;31.60;99.90
32865;DHT22;19219;44.500;11.188;2023-08-21T07:01:01;31.90;99.90
32865;DHT22;19219;44.500;11.188;2023-08-21T07:03:27;32.10;99.90
32865;DHT22;19219;44.500;11.188;2023-08-21T07:05:57;32.30;99.90
32865;DHT22;19219;44.500;11.188;2023-08-21T07:08:23;32.50;99.90
32865;DHT22;19219;44.500;11.188;2023-08-21T07:10:49;32.70;99.90
32865;DHT22;19219;44.500;11.188;2023-08-21T07:13:15;32.90;99.90
32865;DHT22;19219;44.500;11.188;2023-08-21T07:15:41;33.10;99.90
32865;DHT22;19219;44.500;11.188;2023-08-21T07:18:07;33.20;99.90
32865;DHT22;19219;44.500;11.188;2023-08-21T07:20:33;33.50;99.90
32865;DHT22;19219;44.500;11.188;2023-08-21T07:23:00;33.60;99.90
32865;DHT22;19219;44.500;11.188;2023-08-21T07:25:26;33.70;99.90
32865;DHT22;19219;44.500;11.188;2023-08-21T07:27:52;33.70;99.90
32865;DHT22;19219;44.500;11.188;2023-08-21T07:30:20;33.90;99.90
32865;DHT22;19219;44.500;11.188;2023-08-21T07:32:48;34.10;99.90
32865;DHT22;19219;44.500;11.188;2023-08-21T07:35:14;34.40;99.90
32865;DHT22;19219;44.500;11.188;2023-08-21T07:37:43;34.50;99.90
32865;DHT22;19219;44.500;11.188;2023-08-21T07:40:08;34.40;99.90
32865;DHT22;19219;44.500;11.188;2023-08-21T07:42:34;34.60;99.90
32865;DHT22;19219;44.500;11.188;2023-08-21T07:45:00;34.50;99.90
32865;DHT22;19219;44.500;11.188;2023-08-21T07:47:28;34.50;99.90
32865;DHT22;19219;44.500;11.188;2023-08-21T07:49:55;33.80;99.90
32865;DHT22;19219;44.500;11.188;2023-08-21T07:52:21;33.90;99.90
32865;DHT22;19219;44.500;11.188;2023-08-21T07:54:54;34.10;99.90
32865;DHT22;19219;44.500;11.188;2023-08-21T07:57:20;34.30;99.90
32865;DHT22;19219;44.500;11.188;2023-08-21T07:59:45;34.40;99.90
32865;DHT22;19219;44.500;11.188;2023-08-21T08:02:11;34.60;99.90
32865;DHT22;19219;44.500;11.188;2023-08-21T08:04:38;34.60;99.90
32865;DHT22;19219;44.500;11.188;2023-08-21T08:07:04;34.80;99.90
32865;DHT22;19219;44.500;11.188;2023-08-21T08:09:30;35.00;99.90
32865;DHT22;19219;44.500;11.188;2023-08-21T08:11:56;35.30;99.90
32865;DHT22;19219;44.500;11.188;2023-08-21T08:14:22;35.10;99.90
32865;DHT22;19219;44.500;11.188;2023-08-21T08:16:47;35.10;99.90
32865;DHT22;19219;44.500;11.188;2023-08-21T08:19:13;35.40;99.90
32865;DHT22;19219;44.500;11.188;2023-08-21T08:21:39;35.70;99.90
32865;DHT22;19219;44.500;11.188;2023-08-21T08:24:05;35.60;99.90
32865;DHT22;19219;44.500;11.188;2023-08-21T08:26:30;35.70;99.70
32865;DHT22;19219;44.500;11.188;2023-08-21T08:28:56;36.00;99.20
32865;DHT22;19219;44.500;11.188;2023-08-21T08:31:22;36.00;98.20
32865;DHT22;19219;44.500;11.188;2023-08-21T08:33:49;35.80;98.40
32865;DHT22;19219;44.500;11.188;2023-08-21T08:36:15;36.00;98.30
32865;DHT22;19219;44.500;11.188;2023-08-21T08:38:40;36.20;97.90
32865;DHT22;19219;44.500;11.188;2023-08-21T08:41:11;36.20;97.80
32865;DHT22;19219;44.500;11.188;2023-08-21T08:43:40;36.20;96.60
32865;DHT22;19219;44.500;11.188;2023-08-21T08:46:07;36.30;96.70
32865;DHT22;19219;44.500;11.188;2023-08-21T08:48:35;36.40;97.10
32865;DHT22;19219;44.500;11.188;2023-08-21T08:51:02;36.20;96.60
32865;DHT22;19219;44.500;11.188;2023-08-21T08:53:30;36.30;96.50
32865;DHT22;19219;44.500;11.188;2023-08-21T08:55:57;36.50;96.30
32865;DHT22;19219;44.500;11.188;2023-08-21T08:58:23;36.60;95.50
32865;DHT22;19219;44.500;11.188;2023-08-21T09:00:49;36.70;95.20
32865;DHT22;19219;44.500;11.188;2023-08-21T09:03:15;36.90;95.10
32865;DHT22;19219;44.500;11.188;2023-08-21T09:05:41;36.60;95.00
32865;DHT22;19219;44.500;11.188;2023-08-21T09:10:39;36.70;93.40
32865;DHT22;19219;44.500;11.188;2023-08-21T09:13:16;37.10;95.00
32865;DHT22;19219;44.500;11.188;2023-08-21T09:15:43;37.20;93.50
32865;DHT22;19219;44.500;11.188;2023-08-21T09:18:10;37.20;93.40
32865;DHT22;19219;44.500;11.188;2023-08-21T09:20:36;37.10;93.10
32865;DHT22;19219;44.500;11.188;2023-08-21T09:23:02;36.70;93.30
32865;DHT22;19219;44.500;11.188;2023-08-21T09:25:34;36.60;92.30
32865;DHT22;19219;44.500;11.188;2023-08-21T09:28:00;36.50;93.00
32865;DHT22;19219;44.500;11.188;2023-08-21T09:30:30;36.40;92.30
32865;DHT22;19219;44.500;11.188;2023-08-21T09:32:56;36.30;92.70
32865;DHT22;19219;44.500;11.188;2023-08-21T09:35:23;36.20;91.80
32865;DHT22;19219;44.500;11.188;2023-08-21T09:37:49;35.90;91.80
32865;DHT22;19219;44.500;11.188;2023-08-21T09:40:18;36.20;92.20
32865;DHT22;19219;44.500;11.188;2023-08-21T09:42:44;36.30;91.20
32865;DHT22;19219;44.500;11.188;2023-08-21T09:45:10;36.30;91.80
32865;DHT22;19219;44.500;11.188;2023-08-21T09:47:37;36.40;91.30
32865;DHT22;19219;44.500;11.188;2023-08-21T09:50:05;36.30;91.90
32865;DHT22;19219;44.500;11.188;2023-08-21T09:52:31;35.80;91.40
32865;DHT22;19219;44.500;11.188;2023-08-21T09:54:57;35.70;92.60
32865;DHT22;19219;44.500;11.188;2023-08-21T09:57:23;35.90;92.50
32865;DHT22;19219;44.500;11.188;2023-08-21T09:59:53;36.00;92.70
32865;DHT22;19219;44.500;11.188;2023-08-21T10:02:20;36.00;91.40
32865;DHT22;19219;44.500;11.188;2023-08-21T10:04:48;35.90;90.50
32865;DHT22;19219;44.500;11.188;2023-08-21T10:07:16;35.40;90.10
32865;DHT22;19219;44.500;11.188;2023-08-21T10:09:45;35.40;90.40
32865;DHT22;19219;44.500;11.188;2023-08-21T10:12:14;35.50;90.50
32865;DHT22;19219;44.500;11.188;2023-08-21T10:14:41;35.50;90.10
32865;DHT22;19219;44.500;11.188;2023-08-21T10:17:07;35.60;89.10
32865;DHT22;19219;44.500;11.188;2023-08-21T10:19:34;35.90;89.80
32865;DHT22;19219;44.500;11.188;2023-08-21T10:22:00;35.90;87.20
32865;DHT22;19219;44.500;11.188;2023-08-21T10:24:34;35.90;88.70
32865;DHT22;19219;44.500;11.188;2023-08-21T10:27:02;36.10;89.40
32865;DHT22;19219;44.500;11.188;2023-08-21T10:29:27;36.00;86.80
32865;DHT22;19219;44.500;11.188;2023-08-21T10:32:04;36.30;87.20
32865;DHT22;19219;44.500;11.188;2023-08-21T10:34:35;36.30;87.00
32865;DHT22;19219;44.500;11.188;2023-08-21T10:37:08;36.20;88.10
32865;DHT22;19219;44.500;11.188;2023-08-21T10:39:36;36.10;87.10
32865;DHT22;19219;44.500;11.188;2023-08-21T10:49:54;36.10;84.80
32865;DHT22;19219;44.500;11.188;2023-08-21T10:52:22;36.20;85.40
32865;DHT22;19219;44.500;11.188;2023-08-21T10:54:56;36.20;86.30
32865;DHT22;19219;44.500;11.188;2023-08-21T10:57:26;36.30;86.50
32865;DHT22;19219;44.500;11.188;2023-08-21T10:59:57;36.50;86.90
32865;DHT22;19219;44.500;11.188;2023-08-21T11:02:26;36.50;84.70
32865;DHT22;19219;44.500;11.188;2023-08-21T11:04:52;36.30;84.60
32865;DHT22;19219;44.500;11.188;2023-08-21T11:07:18;36.30;86.60
32865;DHT22;19219;44.500;11.188;2023-08-21T11:09:44;36.30;85.60
32865;DHT22;19219;44.500;11.188;2023-08-21T11:12:13;36.30;84.20
32865;DHT22;19219;44.500;11.188;2023-08-21T11:14:40;36.10;85.20
32865;DHT22;19219;44.500;11.188;2023-08-21T11:17:07;35.80;85.20
32865;DHT22;19219;44.500;11.188;2023-08-21T11:19:33;35.80;86.90
32865;DHT22;19219;44.500;11.188;2023-08-21T11:22:00;35.90;86.80
32865;DHT22;19219;44.500;11.188;2023-08-21T11:27:04;36.00;82.80
32865;DHT22;19219;44.500;11.188;2023-08-21T11:29:36;36.10;81.80
32865;DHT22;19219;44.500;11.188;2023-08-21T11:32:03;36.00;81.70
32865;DHT22;19219;44.500;11.188;2023-08-21T11:34:29;35.70;82.90
32865;DHT22;19219;44.500;11.188;2023-08-21T11:36:55;35.70;83.10
32865;DHT22;19219;44.500;11.188;2023-08-21T11:39:21;35.70;82.80
32865;DHT22;19219;44.500;11.188;2023-08-21T11:41:57;35.60;80.80
32865;DHT22;19219;44.500;11.188;2023-08-21T11:44:22;35.60;80.90
32865;DHT22;19219;44.500;11.188;2023-08-21T11:46:51;35.70;82.20
32865;DHT22;19219;44.500;11.188;2023-08-21T11:49:19;35.80;82.30
32865;DHT22;19219;44.500;11.188;2023-08-21T11:51:48;35.60;80.20
32865;DHT22;19219;44.500;11.188;2023-08-21T11:54:13;35.60;81.00
32865;DHT22;19219;44.500;11.188;2023-08-21T11:56:39;35.60;81.10
32865;DHT22;19219;44.500;11.188;2023-08-21T11:59:06;35.70;82.80
32865;DHT22;19219;44.500;11.188;2023-08-21T12:01:35;35.70;81.70
32865;DHT22;19219;44.500;11.188;2023-08-21T12:04:01;35.70;79.90
32865;DHT22;19219;44.500;11.188;2023-08-21T12:06:44;35.80;81.50
32865;DHT22;19219;44.500;11.188;2023-08-21T12:09:10;35.80;80.00
32865;DHT22;19219;44.500;11.188;2023-08-21T12:11:35;35.90;80.20
32865;DHT22;19219;44.500;11.188;2023-08-21T12:14:04;35.90;83.20
32865;DHT22;19219;44.500;11.188;2023-08-21T12:16:29;36.00;81.90
32865;DHT22;19219;44.500;11.188;2023-08-21T12:18:55;36.00;80.80
32865;DHT22;19219;44.500;11.188;2023-08-21T12:21:23;35.90;80.00
32865;DHT22;19219;44.500;11.188;2023-08-21T12:23:49;36.00;80.60
32865;DHT22;19219;44.500;11.188;2023-08-21T12:26:15;36.00;80.90
32865;DHT22;19219;44.500;11.188;2023-08-21T12:28:49;35.80;79.10
32865;DHT22;19219;44.500;11.188;2023-08-21T12:31:15;35.80;79.50
32865;DHT22;19219;44.500;11.188;2023-08-21T12:33:41;35.80;79.30
32865;DHT22;19219;44.500;11.188;2023-08-21T12:36:07;35.80;79.30
32865;DHT22;19219;44.500;11.188;2023-08-21T12:38:35;35.90;81.10
32865;DHT22;19219;44.500;11.188;2023-08-21T12:41:03;35.90;81.50
32865;DHT22;19219;44.500;11.188;2023-08-21T12:43:30;36.00;81.60
32865;DHT22;19219;44.500;11.188;2023-08-21T12:45:56;35.90;81.10
32865;DHT22;19219;44.500;11.188;2023-08-21T12:48:21;35.90;79.40
32865;DHT22;19219;44.500;11.188;2023-08-21T12:50:47;35.90;80.60
32865;DHT22;19219;44.500;11.188;2023-08-21T12:53:13;35.90;80.80
32865;DHT22;19219;44.500;11.188;2023-08-21T12:55:38;35.90;80.70
32865;DHT22;19219;44.500;11.188;2023-08-21T12:58:04;36.00;81.10
32865;DHT22;19219;44.500;11.188;2023-08-21T13:00:31;36.10;80.10
32865;DHT22;19219;44.500;11.188;2023-08-21T13:02:57;36.10;79.30
32865;DHT22;19219;44.500;11.188;2023-08-21T13:05:23;36.00;79.30
32865;DHT22;19219;44.500;11.188;2023-08-21T13:07:49;36.00;79.30
32865;DHT22;19219;44.500;11.188;2023-08-21T13:10:14;35.90;78.50
32865;DHT22;19219;44.500;11.188;2023-08-21T13:12:40;36.00;77.30
32865;DHT22;19219;44.500;11.188;2023-08-21T13:15:06;35.90;77.40
32865;DHT22;19219;44.500;11.188;2023-08-21T13:17:34;36.10;78.60
32865;DHT22;19219;44.500;11.188;2023-08-21T13:20:00;36.10;78.50
32865;DHT22;19219;44.500;11.188;2023-08-21T13:22:26;36.20;78.00
32865;DHT22;19219;44.500;11.188;2023-08-21T13:24:52;36.10;77.40
32865;DHT22;19219;44.500;11.188;2023-08-21T13:27:17;36.20;79.90
32865;DHT22;19219;44.500;11.188;2023-08-21T13:29:45;36.00;80.80
32865;DHT22;19219;44.500;11.188;2023-08-21T13:32:11;36.00;79.60
32865;DHT22;19219;44.500;11.188;2023-08-21T13:34:36;36.00;78.60
32865;DHT22;19219;44.500;11.188;2023-08-21T13:37:02;36.10;79.70
32865;DHT22;19219;44.500;11.188;2023-08-21T13:39:29;36.20;80.20
32865;DHT22;19219;44.500;11.188;2023-08-21T13:41:56;36.20;78.70
32865;DHT22;19219;44.500;11.188;2023-08-21T13:44:22;36.30;78.90
32865;DHT22;19219;44.500;11.188;2023-08-21T13:46:47;36.30;76.40
32865;DHT22;19219;44.500;11.188;2023-08-21T13:49:13;36.20;77.40
32865;DHT22;19219;44.500;11.188;2023-08-21T13:51:39;36.30;78.40
32865;DHT22;19219;44.500;11.188;2023-08-21T13:54:04;36.30;79.90
32865;DHT22;19219;44.500;11.188;2023-08-21T13:56:30;36.20;80.40
32865;DHT22;19219;44.500;11.188;2023-08-21T13:58:56;36.10;80.30
32865;DHT22;19219;44.500;11.188;2023-08-21T14:01:21;36.10;80.60
32865;DHT22;19219;44.500;11.188;2023-08-21T14:03:47;36.00;80.40
32865;DHT22;19219;44.500;11.188;2023-08-21T14:06:13;36.10;81.20
32865;DHT22;19219;44.500;11.188;2023-08-21T14:08:38;36.10;79.70
32865;DHT22;19219;44.500;11.188;2023-08-21T14:11:04;36.10;81.20
32865;DHT22;19219;44.500;11.188;2023-08-21T14:13:30;36.10;81.00
32865;DHT22;19219;44.500;11.188;2023-08-21T14:15:55;36.10;78.70
32865;DHT22;19219;44.500;11.188;2023-08-21T14:18:21;36.10;80.10
32865;DHT22;19219;44.500;11.188;2023-08-21T14:20:47;36.10;79.10
32865;DHT22;19219;44.500;11.188;2023-08-21T14:23:12;36.20;78.90
32865;DHT22;19219;44.500;11.188;2023-08-21T14:25:38;36.20;78.50
32865;DHT22;19219;44.500;11.188;2023-08-21T14:28:04;36.20;78.40
32865;DHT22;19219;44.500;11.188;2023-08-21T14:30:30;36.30;79.10
32865;DHT22;19219;44.500;11.188;2023-08-21T14:32:56;36.30;77.50
32865;DHT22;19219;44.500;11.188;2023-08-21T14:35:21;36.30;78.30
32865;DHT22;19219;44.500;11.188;2023-08-21T14:37:47;36.20;78.40
32865;DHT22;19219;44.500;11.188;2023-08-21T14:40:13;36.30;78.40
32865;DHT22;19219;44.500;11.188;2023-08-21T14:42:38;36.30;79.30
32865;DHT22;19219;44.500;11.188;2023-08-21T14:45:04;36.30;78.30
32865;DHT22;19219;44.500;11.188;2023-08-21T14:47:31;36.30;77.70
32865;DHT22;19219;44.500;11.188;2023-08-21T14:49:57;36.30;77.60
32865;DHT22;19219;44.500;11.188;2023-08-21T14:52:23;36.30;76.90
32865;DHT22;19219;44.500;11.188;2023-08-21T14:54:51;36.20;77.00
32865;DHT22;19219;44.500;11.188;2023-08-21T14:57:16;36.20;78.40
32865;DHT22;19219;44.500;11.188;2023-08-21T14:59:42;36.30;80.00
32865;DHT22;19219;44.500;11.188;2023-08-21T15:02:08;36.20;79.10
32865;DHT22;19219;44.500;11.188;2023-08-21T15:04:33;36.20;79.80
32865;DHT22;19219;44.500;11.188;2023-08-21T15:06:59;36.10;78.50
32865;DHT22;19219;44.500;11.188;2023-08-21T15:09:25;36.10;77.30
32865;DHT22;19219;44.500;11.188;2023-08-21T15:11:50;35.90;77.30
32865;DHT22;19219;44.500;11.188;2023-08-21T15:14:16;35.90;77.80
32865;DHT22;19219;44.500;11.188;2023-08-21T15:16:42;35.90;79.30
32865;DHT22;19219;44.500;11.188;2023-08-21T15:19:07;35.90;77.80
32865;DHT22;19219;44.500;11.188;2023-08-21T15:21:33;35.80;75.40
32865;DHT22;19219;44.500;11.188;2023-08-21T15:23:59;35.80;75.80
32865;DHT22;19219;44.500;11.188;2023-08-21T15:26:25;35.80;76.10
32865;DHT22;19219;44.500;11.188;2023-08-21T15:28:51;35.80;75.50
32865;DHT22;19219;44.500;11.188;2023-08-21T15:31:16;35.90;75.70